sensor_id;sensor_type;location;lat;lon;timestamp;temperature;humidity
64198;SHT31;50512;53.666;9.700;2024-02-28T00:02:01;2.78;94.50
64198;SHT31;50512;53.666;9.700;2024-02-28T00:04:27;2.76;94.38
64198;SHT31;50512;53.666;9.700;2024-02-28T00:06:54;2.83;94.83
64198;SHT31;50512;53.666;9.700;2024-02-28T00:09:20;2.91;94.64
64198;SHT31;50512;53.666;9.700;2024-02-28T00:11:47;2.95;93.63
64198;SHT31;50512;53.666;9.700;2024-02-28T00:14:14;2.91;93.63
64198;SHT31;50512;53.666;9.700;2024-02-28T00:16:42;2.70;93.05
64198;SHT31;50512;53.666;9.700;2024-02-28T00:19:09;2.70;93.29
64198;SHT31;50512;53.666;9.700;2024-02-28T00:21:38;2.62;93.12
64198;SHT31;50512;53.666;9.700;2024-02-28T00:24:05;2.65;93.59
64198;SHT31;50512;53.666;9.700;2024-02-28T00:26:32;2.71;93.41
64198;SHT31;50512;53.666;9.700;2024-02-28T00:28:58;2.60;93.13
64198;SHT31;50512;53.666;9.700;2024-02-28T00:31:25;2.60;93.32
64198;SHT31;50512;53.666;9.700;2024-02-28T00:33:53;2.68;93.92
64198;SHT31;50512;53.666;9.700;2024-02-28T00:36:20;2.77;93.77
64198;SHT31;50512;53.666;9.700;2024-02-28T00:38:46;2.84;93.70
64198;SHT31;50512;53.666;9.700;2024-02-28T00:41:12;2.76;93.08
64198;SHT31;50512;53.666;9.700;2024-02-28T00:43:39;2.68;93.64
64198;SHT31;50512;53.666;9.700;2024-02-28T00:46:05;2.67;94.35
64198;SHT31;50512;53.666;9.700;2024-02-28T00:48:36;2.68;93.90
64198;SHT31;50512;53.666;9.700;2024-02-28T00:51:04;2.73;94.21
64198;SHT31;50512;53.666;9.700;2024-02-28T00:53:31;2.71;94.17
64198;SHT31;50512;53.666;9.700;2024-02-28T00:55:58;2.67;94.21
64198;SHT31;50512;53.666;9.700;2024-02-28T00:58:24;2.71;94.00
64198;SHT31;50512;53.666;9.700;2024-02-28T01:00:51;2.68;94.28
64198;SHT31;50512;53.666;9.700;2024-02-28T01:03:18;2.71;93.87
64198;SHT31;50512;53.666;9.700;2024-02-28T01:05:44;2.73;93.96
64198;SHT31;50512;53.666;9.700;2024-02-28T01:08:12;2.67;93.81
64198;SHT31;50512;53.666;9.700;2024-02-28T01:10:38;2.65;94.33
64198;SHT31;50512;53.666;9.700;2024-02-28T01:13:06;2.68;94.02
64198;SHT31;50512;53.666;9.700;2024-02-28T01:15:32;2.77;93.95
64198;SHT31;50512;53.666;9.700;2024-02-28T01:17:59;2.64;92.92
64198;SHT31;50512;53.666;9.700;2024-02-28T01:20:25;2.74;93.64
64198;SHT31;50512;53.666;9.700;2024-02-28T01:22:51;2.80;93.75
64198;SHT31;50512;53.666;9.700;2024-02-28T01:25:19;2.92;94.07
64198;SHT31;50512;53.666;9.700;2024-02-28T01:27:46;2.94;94.14
64198;SHT31;50512;53.666;9.700;2024-02-28T01:30:12;2.81;93.84
64198;SHT31;50512;53.666;9.700;2024-02-28T01:32:39;2.71;94.07
64198;SHT31;50512;53.666;9.700;2024-02-28T01:35:08;2.71;93.76
64198;SHT31;50512;53.666;9.700;2024-02-28T01:37:35;2.76;94.50
64198;SHT31;50512;53.666;9.700;2024-02-28T01:40:01;2.83;94.93
64198;SHT31;50512;53.666;9.700;2024-02-28T01:42:30;2.70;94.64
64198;SHT31;50512;53.666;9.700;2024-02-28T01:44:57;2.83;94.78
64198;SHT31;50512;53.666;9.700;2024-02-28T01:47:24;2.71;94.39
64198;SHT31;50512;53.666;9.700;2024-02-28T01:49:50;2.70;94.66
64198;SHT31;50512;53.666;9.700;2024-02-28T01:52:19;2.81;94.62
64198;SHT31;50512;53.666;9.700;2024-02-28T01:54:46;2.71;94.77
64198;SHT31;50512;53.666;9.700;2024-02-28T01:57:13;2.65;93.94
64198;SHT31;50512;53.666;9.700;2024-02-28T01:59:41;2.71;93.85
64198;SHT31;50512;53.666;9.700;2024-02-28T02:02:08;2.64;93.50
64198;SHT31;50512;53.666;9.700;2024-02-28T02:04:34;2.70;93.90
64198;SHT31;50512;53.666;9.700;2024-02-28T02:07:01;2.57;93.54
64198;SHT31;50512;53.666;9.700;2024-02-28T02:09:28;2.56;93.29
64198;SHT31;50512;53.666;9.700;2024-02-28T02:11:54;2.56;93.27
64198;SHT31;50512;53.666;9.700;2024-02-28T02:14:21;2.44;92.72
64198;SHT31;50512;53.666;9.700;2024-02-28T02:16:49;2.47;93.73
64198;SHT31;50512;53.666;9.700;2024-02-28T02:19:15;2.50;93.26
64198;SHT31;50512;53.666;9.700;2024-02-28T02:21:48;2.50;93.32
64198;SHT31;50512;53.666;9.700;2024-02-28T02:24:17;2.53;93.68
64198;SHT31;50512;53.666;9.700;2024-02-28T02:26:43;2.51;93.55
64198;SHT31;50512;53.666;9.700;2024-02-28T02:29:11;2.51;93.33
64198;SHT31;50512;53.666;9.700;2024-02-28T02:31:38;2.54;93.94
64198;SHT31;50512;53.666;9.700;2024-02-28T02:34:05;2.60;93.80
64198;SHT31;50512;53.666;9.700;2024-02-28T02:36:32;2.64;93.82
64198;SHT31;50512;53.666;9.700;2024-02-28T02:38:59;2.67;93.93
64198;SHT31;50512;53.666;9.700;2024-02-28T02:41:26;2.70;93.92
64198;SHT31;50512;53.666;9.700;2024-02-28T02:43:53;2.67;93.78
64198;SHT31;50512;53.666;9.700;2024-02-28T02:46:20;2.60;93.84
64198;SHT31;50512;53.666;9.700;2024-02-28T02:48:46;2.57;94.28
64198;SHT31;50512;53.666;9.700;2024-02-28T02:51:13;2.54;94.31
64198;SHT31;50512;53.666;9.700;2024-02-28T02:53:39;2.54;94.28
64198;SHT31;50512;53.666;9.700;2024-02-28T02:56:06;2.61;94.15
64198;SHT31;50512;53.666;9.700;2024-02-28T02:58:34;2.70;94.02
64198;SHT31;50512;53.666;9.700;2024-02-28T03:01:00;2.68;94.32
64198;SHT31;50512;53.666;9.700;2024-02-28T03:03:27;2.70;94.42
64198;SHT31;50512;53.666;9.700;2024-02-28T03:05:53;2.68;94.31
64198;SHT31;50512;53.666;9.700;2024-02-28T03:08:20;2.71;94.76
64198;SHT31;50512;53.666;9.700;2024-02-28T03:10:46;2.64;94.56
64198;SHT31;50512;53.666;9.700;2024-02-28T03:13:13;2.61;94.56
64198;SHT31;50512;53.666;9.700;2024-02-28T03:15:40;2.64;94.91
64198;SHT31;50512;53.666;9.700;2024-02-28T03:18:07;2.67;94.90
64198;SHT31;50512;53.666;9.700;2024-02-28T03:20:33;2.73;94.79
64198;SHT31;50512;53.666;9.700;2024-02-28T03:23:03;2.71;94.70
64198;SHT31;50512;53.666;9.700;2024-02-28T03:25:30;2.71;94.88
64198;SHT31;50512;53.666;9.700;2024-02-28T03:27:57;2.74;94.59
64198;SHT31;50512;53.666;9.700;2024-02-28T03:30:24;2.77;94.71
64198;SHT31;50512;53.666;9.700;2024-02-28T03:32:52;2.77;94.57
64198;SHT31;50512;53.666;9.700;2024-02-28T03:35:19;2.71;94.74
64198;SHT31;50512;53.666;9.700;2024-02-28T03:37:45;2.68;94.91
64198;SHT31;50512;53.666;9.700;2024-02-28T03:40:12;2.65;95.13
64198;SHT31;50512;53.666;9.700;2024-02-28T03:42:40;2.64;95.66
64198;SHT31;50512;53.666;9.700;2024-02-28T03:45:06;2.62;95.93
64198;SHT31;50512;53.666;9.700;2024-02-28T03:47:33;2.60;95.63
64198;SHT31;50512;53.666;9.700;2024-02-28T03:50:00;2.67;95.89
64198;SHT31;50512;53.666;9.700;2024-02-28T03:52:29;2.61;95.50
64198;SHT31;50512;53.666;9.700;2024-02-28T03:54:56;2.57;95.08
64198;SHT31;50512;53.666;9.700;2024-02-28T03:57:22;2.61;95.08
64198;SHT31;50512;53.666;9.700;2024-02-28T03:59:49;2.58;94.93
64198;SHT31;50512;53.666;9.700;2024-02-28T04:02:15;2.57;95.35
64198;SHT31;50512;53.666;9.700;2024-02-28T04:04:41;2.57;95.22
64198;SHT31;50512;53.666;9.700;2024-02-28T04:07:09;2.60;95.48
64198;SHT31;50512;53.666;9.700;2024-02-28T04:09:36;2.53;95.05
64198;SHT31;50512;53.666;9.700;2024-02-28T04:12:02;2.50;95.10
64198;SHT31;50512;53.666;9.700;2024-02-28T04:14:29;2.53;95.18
64198;SHT31;50512;53.666;9.700;2024-02-28T04:16:55;2.47;95.28
64198;SHT31;50512;53.666;9.700;2024-02-28T04:19:22;2.44;95.48
64198;SHT31;50512;53.666;9.700;2024-02-28T04:21:48;2.42;95.41
64198;SHT31;50512;53.666;9.700;2024-02-28T04:24:16;2.43;95.88
64198;SHT31;50512;53.666;9.700;2024-02-28T04:26:42;2.39;95.87
64198;SHT31;50512;53.666;9.700;2024-02-28T04:29:09;2.40;95.75
64198;SHT31;50512;53.666;9.700;2024-02-28T04:31:39;2.40;95.82
64198;SHT31;50512;53.666;9.700;2024-02-28T04:34:05;2.40;95.66
64198;SHT31;50512;53.666;9.700;2024-02-28T04:36:32;2.44;95.75
64198;SHT31;50512;53.666;9.700;2024-02-28T04:38:58;2.47;96.02
64198;SHT31;50512;53.666;9.700;2024-02-28T04:41:27;2.47;96.14
64198;SHT31;50512;53.666;9.700;2024-02-28T04:43:54;2.47;96.12
64198;SHT31;50512;53.666;9.700;2024-02-28T04:46:20;2.44;96.20
64198;SHT31;50512;53.666;9.700;2024-02-28T04:48:46;2.42;96.31
64198;SHT31;50512;53.666;9.700;2024-02-28T04:51:15;2.43;96.44
64198;SHT31;50512;53.666;9.700;2024-02-28T04:53:42;2.39;96.32
64198;SHT31;50512;53.666;9.700;2024-02-28T04:56:08;2.47;96.29
64198;SHT31;50512;53.666;9.700;2024-02-28T04:58:36;2.43;96.51
64198;SHT31;50512;53.666;9.700;2024-02-28T05:01:03;2.46;96.90
64198;SHT31;50512;53.666;9.700;2024-02-28T05:03:29;2.53;96.82
64198;SHT31;50512;53.666;9.700;2024-02-28T05:05:56;2.51;96.42
64198;SHT31;50512;53.666;9.700;2024-02-28T05:08:22;2.44;96.30
64198;SHT31;50512;53.666;9.700;2024-02-28T05:10:49;2.49;96.32
64198;SHT31;50512;53.666;9.700;2024-02-28T05:13:16;2.50;96.17
64198;SHT31;50512;53.666;9.700;2024-02-28T05:15:44;2.44;96.66
64198;SHT31;50512;53.666;9.700;2024-02-28T05:18:10;2.44;96.74
64198;SHT31;50512;53.666;9.700;2024-02-28T05:20:36;2.46;96.60
64198;SHT31;50512;53.666;9.700;2024-02-28T05:23:03;2.42;96.31
64198;SHT31;50512;53.666;9.700;2024-02-28T05:25:29;2.46;96.89
64198;SHT31;50512;53.666;9.700;2024-02-28T05:27:56;2.49;96.81
64198;SHT31;50512;53.666;9.700;2024-02-28T05:30:22;2.50;96.77
64198;SHT31;50512;53.666;9.700;2024-02-28T05:32:50;2.50;96.44
64198;SHT31;50512;53.666;9.700;2024-02-28T05:35:17;2.50;96.83
64198;SHT31;50512;53.666;9.700;2024-02-28T05:37:44;2.51;96.53
64198;SHT31;50512;53.666;9.700;2024-02-28T05:40:11;2.51;96.12
64198;SHT31;50512;53.666;9.700;2024-02-28T05:42:38;2.56;96.33
64198;SHT31;50512;53.666;9.700;2024-02-28T05:45:05;2.56;96.48
64198;SHT31;50512;53.666;9.700;2024-02-28T05:47:32;2.54;96.36
64198;SHT31;50512;53.666;9.700;2024-02-28T05:50:00;2.57;96.41
64198;SHT31;50512;53.666;9.700;2024-02-28T05:52:26;2.57;96.25
64198;SHT31;50512;53.666;9.700;2024-02-28T05:54:53;2.57;96.39
64198;SHT31;50512;53.666;9.700;2024-02-28T05:57:19;2.60;96.57
64198;SHT31;50512;53.666;9.700;2024-02-28T05:59:45;2.60;96.64
64198;SHT31;50512;53.666;9.700;2024-02-28T06:02:12;2.61;96.90
64198;SHT31;50512;53.666;9.700;2024-02-28T06:04:39;2.58;96.83
64198;SHT31;50512;53.666;9.700;2024-02-28T06:07:07;2.64;96.68
64198;SHT31;50512;53.666;9.700;2024-02-28T06:09:33;2.67;96.75
64198;SHT31;50512;53.666;9.700;2024-02-28T06:11:59;2.62;96.53
64198;SHT31;50512;53.666;9.700;2024-02-28T06:14:27;2.64;96.86
64198;SHT31;50512;53.666;9.700;2024-02-28T06:16:53;2.62;96.80
64198;SHT31;50512;53.666;9.700;2024-02-28T06:19:20;2.64;96.69
64198;SHT31;50512;53.666;9.700;2024-02-28T06:21:46;2.65;96.57
64198;SHT31;50512;53.666;9.700;2024-02-28T06:24:14;2.65;96.42
64198;SHT31;50512;53.666;9.700;2024-02-28T06:26:40;2.64;96.56
64198;SHT31;50512;53.666;9.700;2024-02-28T06:29:08;2.64;96.71
64198;SHT31;50512;53.666;9.700;2024-02-28T06:31:34;2.64;96.53
64198;SHT31;50512;53.666;9.700;2024-02-28T06:34:01;2.62;96.80
64198;SHT31;50512;53.666;9.700;2024-02-28T06:36:28;2.60;96.61
64198;SHT31;50512;53.666;9.700;2024-02-28T06:38:55;2.60;97.07
64198;SHT31;50512;53.666;9.700;2024-02-28T06:41:23;2.62;97.04
64198;SHT31;50512;53.666;9.700;2024-02-28T06:43:49;2.65;96.76
64198;SHT31;50512;53.666;9.700;2024-02-28T06:46:16;2.67;96.83
64198;SHT31;50512;53.666;9.700;2024-02-28T06:48:43;2.74;96.70
64198;SHT31;50512;53.666;9.700;2024-02-28T06:51:09;2.74;96.03
64198;SHT31;50512;53.666;9.700;2024-02-28T06:53:35;2.80;96.43
64198;SHT31;50512;53.666;9.700;2024-02-28T06:56:02;2.80;96.33
64198;SHT31;50512;53.666;9.700;2024-02-28T06:58:30;2.84;96.63
64198;SHT31;50512;53.666;9.700;2024-02-28T07:00:57;2.85;96.72
64198;SHT31;50512;53.666;9.700;2024-02-28T07:03:23;2.87;96.70
64198;SHT31;50512;53.666;9.700;2024-02-28T07:05:50;2.91;96.76
64198;SHT31;50512;53.666;9.700;2024-02-28T07:08:17;2.95;96.68
64198;SHT31;50512;53.666;9.700;2024-02-28T07:10:43;2.95;96.65
64198;SHT31;50512;53.666;9.700;2024-02-28T07:13:14;2.95;96.70
64198;SHT31;50512;53.666;9.700;2024-02-28T07:15:42;3.01;96.98
64198;SHT31;50512;53.666;9.700;2024-02-28T07:18:09;3.01;96.42
64198;SHT31;50512;53.666;9.700;2024-02-28T07:20:35;3.04;96.71
64198;SHT31;50512;53.666;9.700;2024-02-28T07:23:02;3.04;96.33
64198;SHT31;50512;53.666;9.700;2024-02-28T07:25:28;3.13;96.72
64198;SHT31;50512;53.666;9.700;2024-02-28T07:27:56;3.16;96.38
64198;SHT31;50512;53.666;9.700;2024-02-28T07:30:23;3.15;96.10
64198;SHT31;50512;53.666;9.700;2024-02-28T07:32:51;3.22;96.12
64198;SHT31;50512;53.666;9.700;2024-02-28T07:35:17;3.23;96.16
64198;SHT31;50512;53.666;9.700;2024-02-28T07:37:44;3.25;96.41
64198;SHT31;50512;53.666;9.700;2024-02-28T07:40:10;3.30;96.32
64198;SHT31;50512;53.666;9.700;2024-02-28T07:42:37;3.47;96.04
64198;SHT31;50512;53.666;9.700;2024-02-28T07:45:04;3.56;96.08
64198;SHT31;50512;53.666;9.700;2024-02-28T07:47:33;3.59;96.00
64198;SHT31;50512;53.666;9.700;2024-02-28T07:50:01;3.57;96.07
64198;SHT31;50512;53.666;9.700;2024-02-28T07:52:27;3.47;96.06
64198;SHT31;50512;53.666;9.700;2024-02-28T07:54:54;3.47;96.37
64198;SHT31;50512;53.666;9.700;2024-02-28T07:57:21;3.53;96.14
64198;SHT31;50512;53.666;9.700;2024-02-28T07:59:47;3.49;96.08
64198;SHT31;50512;53.666;9.700;2024-02-28T08:02:14;3.52;96.15
64198;SHT31;50512;53.666;9.700;2024-02-28T08:04:40;3.63;96.35
64198;SHT31;50512;53.666;9.700;2024-02-28T08:07:08;3.69;96.13
64198;SHT31;50512;53.666;9.700;2024-02-28T08:09:34;3.94;95.86
64198;SHT31;50512;53.666;9.700;2024-02-28T08:12:01;4.32;94.89
64198;SHT31;50512;53.666;9.700;2024-02-28T08:14:27;4.50;93.11
64198;SHT31;50512;53.666;9.700;2024-02-28T08:16:54;4.71;92.75
64198;SHT31;50512;53.666;9.700;2024-02-28T08:19:20;4.56;93.42
64198;SHT31;50512;53.666;9.700;2024-02-28T08:21:47;4.56;93.26
64198;SHT31;50512;53.666;9.700;2024-02-28T08:24:14;4.71;93.69
64198;SHT31;50512;53.666;9.700;2024-02-28T08:26:41;4.84;93.35
64198;SHT31;50512;53.666;9.700;2024-02-28T08:29:07;4.93;92.73
64198;SHT31;50512;53.666;9.700;2024-02-28T08:31:39;5.11;92.17
64198;SHT31;50512;53.666;9.700;2024-02-28T08:34:05;5.13;91.92
64198;SHT31;50512;53.666;9.700;2024-02-28T08:36:31;5.15;90.90
64198;SHT31;50512;53.666;9.700;2024-02-28T08:38:58;5.25;92.05
64198;SHT31;50512;53.666;9.700;2024-02-28T08:41:25;5.16;91.53
64198;SHT31;50512;53.666;9.700;2024-02-28T08:43:52;5.37;91.52
64198;SHT31;50512;53.666;9.700;2024-02-28T08:46:18;5.20;91.56
64198;SHT31;50512;53.666;9.700;2024-02-28T08:48:45;5.02;92.41
64198;SHT31;50512;53.666;9.700;2024-02-28T08:51:11;5.07;93.69
64198;SHT31;50512;53.666;9.700;2024-02-28T08:53:38;5.02;93.68
64198;SHT31;50512;53.666;9.700;2024-02-28T08:56:05;5.09;93.20
64198;SHT31;50512;53.666;9.700;2024-02-28T08:58:33;5.20;93.48
64198;SHT31;50512;53.666;9.700;2024-02-28T09:00:59;4.99;93.21
64198;SHT31;50512;53.666;9.700;2024-02-28T09:03:25;4.78;93.94
64198;SHT31;50512;53.666;9.700;2024-02-28T09:05:52;4.77;94.22
64198;SHT31;50512;53.666;9.700;2024-02-28T09:08:18;5.08;94.43
64198;SHT31;50512;53.666;9.700;2024-02-28T09:10:45;5.16;92.06
64198;SHT31;50512;53.666;9.700;2024-02-28T09:13:12;4.75;93.53
64198;SHT31;50512;53.666;9.700;2024-02-28T09:15:40;4.75;94.52
64198;SHT31;50512;53.666;9.700;2024-02-28T09:18:07;4.73;94.57
64198;SHT31;50512;53.666;9.700;2024-02-28T09:20:34;4.81;94.86
64198;SHT31;50512;53.666;9.700;2024-02-28T09:23:00;4.77;94.64
64198;SHT31;50512;53.666;9.700;2024-02-28T09:25:26;4.74;94.44
64198;SHT31;50512;53.666;9.700;2024-02-28T09:27:53;4.78;94.63
64198;SHT31;50512;53.666;9.700;2024-02-28T09:30:19;4.92;95.04
64198;SHT31;50512;53.666;9.700;2024-02-28T09:32:47;4.99;94.12
64198;SHT31;50512;53.666;9.700;2024-02-28T09:35:14;5.11;93.26
64198;SHT31;50512;53.666;9.700;2024-02-28T09:37:40;5.11;93.90
64198;SHT31;50512;53.666;9.700;2024-02-28T09:40:09;5.25;93.56
64198;SHT31;50512;53.666;9.700;2024-02-28T09:42:36;5.56;93.84
64198;SHT31;50512;53.666;9.700;2024-02-28T09:45:04;5.53;92.17
64198;SHT31;50512;53.666;9.700;2024-02-28T09:47:30;5.60;93.19
64198;SHT31;50512;53.666;9.700;2024-02-28T09:49:58;5.57;92.35
64198;SHT31;50512;53.666;9.700;2024-02-28T09:52:26;5.57;92.34
64198;SHT31;50512;53.666;9.700;2024-02-28T09:54:53;5.64;92.05
64198;SHT31;50512;53.666;9.700;2024-02-28T09:57:19;5.68;92.22
64198;SHT31;50512;53.666;9.700;2024-02-28T09:59:49;5.79;91.64
64198;SHT31;50512;53.666;9.700;2024-02-28T10:02:17;6.01;92.07
64198;SHT31;50512;53.666;9.700;2024-02-28T10:04:45;6.19;90.68
64198;SHT31;50512;53.666;9.700;2024-02-28T10:07:13;6.32;90.27
64198;SHT31;50512;53.666;9.700;2024-02-28T10:09:40;6.43;90.22
64198;SHT31;50512;53.666;9.700;2024-02-28T10:12:06;6.78;90.53
64198;SHT31;50512;53.666;9.700;2024-02-28T10:14:33;6.61;88.60
64198;SHT31;50512;53.666;9.700;2024-02-28T10:16:59;6.51;91.12
64198;SHT31;50512;53.666;9.700;2024-02-28T10:19:26;6.99;88.27
64198;SHT31;50512;53.666;9.700;2024-02-28T10:21:52;6.88;88.14
64198;SHT31;50512;53.666;9.700;2024-02-28T10:24:20;7.20;86.97
64198;SHT31;50512;53.666;9.700;2024-02-28T10:26:50;7.11;88.28
64198;SHT31;50512;53.666;9.700;2024-02-28T10:29:21;6.95;88.64
64198;SHT31;50512;53.666;9.700;2024-02-28T10:31:48;6.95;89.43
64198;SHT31;50512;53.666;9.700;2024-02-28T10:34:16;6.83;89.68
64198;SHT31;50512;53.666;9.700;2024-02-28T10:36:44;6.87;89.30
64198;SHT31;50512;53.666;9.700;2024-02-28T10:39:11;6.67;89.38
64198;SHT31;50512;53.666;9.700;2024-02-28T10:41:39;6.77;89.66
64198;SHT31;50512;53.666;9.700;2024-02-28T10:44:06;6.58;89.21
64198;SHT31;50512;53.666;9.700;2024-02-28T10:46:32;6.34;89.65
64198;SHT31;50512;53.666;9.700;2024-02-28T10:48:58;6.12;90.85
64198;SHT31;50512;53.666;9.700;2024-02-28T10:51:26;6.26;91.02
64198;SHT31;50512;53.666;9.700;2024-02-28T10:54:02;6.32;90.71
64198;SHT31;50512;53.666;9.700;2024-02-28T10:56:31;6.25;91.46
64198;SHT31;50512;53.666;9.700;2024-02-28T10:58:59;6.18;91.17
64198;SHT31;50512;53.666;9.700;2024-02-28T11:01:26;6.25;91.66
64198;SHT31;50512;53.666;9.700;2024-02-28T11:03:53;5.94;91.21
64198;SHT31;50512;53.666;9.700;2024-02-28T11:06:20;6.05;91.84
64198;SHT31;50512;53.666;9.700;2024-02-28T11:08:47;6.20;91.65
64198;SHT31;50512;53.666;9.700;2024-02-28T11:11:18;6.12;91.62
64198;SHT31;50512;53.666;9.700;2024-02-28T11:13:51;6.32;92.13
64198;SHT31;50512;53.666;9.700;2024-02-28T11:16:26;6.13;91.40
64198;SHT31;50512;53.666;9.700;2024-02-28T11:18:53;5.84;92.71
64198;SHT31;50512;53.666;9.700;2024-02-28T11:21:19;5.98;93.04
64198;SHT31;50512;53.666;9.700;2024-02-28T11:23:49;6.05;93.37
64198;SHT31;50512;53.666;9.700;2024-02-28T11:26:16;6.05;92.63
64198;SHT31;50512;53.666;9.700;2024-02-28T11:28:43;5.97;93.37
64198;SHT31;50512;53.666;9.700;2024-02-28T11:31:09;5.81;93.69
64198;SHT31;50512;53.666;9.700;2024-02-28T11:33:37;5.81;94.18
64198;SHT31;50512;53.666;9.700;2024-02-28T11:36:04;5.97;94.13
64198;SHT31;50512;53.666;9.700;2024-02-28T11:38:31;6.11;93.81
64198;SHT31;50512;53.666;9.700;2024-02-28T11:40:57;6.22;93.87
64198;SHT31;50512;53.666;9.700;2024-02-28T11:43:24;6.22;93.99
64198;SHT31;50512;53.666;9.700;2024-02-28T11:45:50;6.22;93.56
64198;SHT31;50512;53.666;9.700;2024-02-28T11:48:17;6.30;94.00
64198;SHT31;50512;53.666;9.700;2024-02-28T11:50:45;6.36;93.75
64198;SHT31;50512;53.666;9.700;2024-02-28T11:53:11;6.46;93.23
64198;SHT31;50512;53.666;9.700;2024-02-28T11:55:37;6.44;93.51
64198;SHT31;50512;53.666;9.700;2024-02-28T11:58:07;6.36;93.73
64198;SHT31;50512;53.666;9.700;2024-02-28T12:00:34;6.12;94.11
64198;SHT31;50512;53.666;9.700;2024-02-28T12:03:04;6.18;94.92
64198;SHT31;50512;53.666;9.700;2024-02-28T12:05:31;6.12;94.71
64198;SHT31;50512;53.666;9.700;2024-02-28T12:08:00;6.06;95.06
64198;SHT31;50512;53.666;9.700;2024-02-28T12:10:27;6.13;95.13
64198;SHT31;50512;53.666;9.700;2024-02-28T12:12:58;6.05;95.70
64198;SHT31;50512;53.666;9.700;2024-02-28T12:15:25;6.05;95.80
64198;SHT31;50512;53.666;9.700;2024-02-28T12:17:52;6.12;95.25
64198;SHT31;50512;53.666;9.700;2024-02-28T12:20:18;6.16;96.04
64198;SHT31;50512;53.666;9.700;2024-02-28T12:22:45;6.12;95.56
64198;SHT31;50512;53.666;9.700;2024-02-28T12:25:13;6.05;95.72
64198;SHT31;50512;53.666;9.700;2024-02-28T12:27:39;5.90;96.24
64198;SHT31;50512;53.666;9.700;2024-02-28T12:30:07;5.95;97.02
64198;SHT31;50512;53.666;9.700;2024-02-28T12:32:33;5.97;96.41
64198;SHT31;50512;53.666;9.700;2024-02-28T12:35:00;5.91;96.40
64198;SHT31;50512;53.666;9.700;2024-02-28T12:37:27;6.03;96.55
64198;SHT31;50512;53.666;9.700;2024-02-28T12:39:53;5.95;96.56
64198;SHT31;50512;53.666;9.700;2024-02-28T12:42:21;6.02;96.69
64198;SHT31;50512;53.666;9.700;2024-02-28T12:44:47;5.97;96.57
64198;SHT31;50512;53.666;9.700;2024-02-28T12:47:14;6.02;96.88
64198;SHT31;50512;53.666;9.700;2024-02-28T12:49:40;6.08;97.01
64198;SHT31;50512;53.666;9.700;2024-02-28T12:52:07;6.15;96.89
64198;SHT31;50512;53.666;9.700;2024-02-28T12:54:33;6.02;96.44
64198;SHT31;50512;53.666;9.700;2024-02-28T12:57:00;6.16;96.50
64198;SHT31;50512;53.666;9.700;2024-02-28T12:59:30;6.22;96.29
64198;SHT31;50512;53.666;9.700;2024-02-28T13:01:56;6.15;95.94
64198;SHT31;50512;53.666;9.700;2024-02-28T13:04:23;6.23;96.66
64198;SHT31;50512;53.666;9.700;2024-02-28T13:06:50;6.41;96.95
64198;SHT31;50512;53.666;9.700;2024-02-28T13:09:18;6.30;95.27
64198;SHT31;50512;53.666;9.700;2024-02-28T13:11:47;6.29;96.58
64198;SHT31;50512;53.666;9.700;2024-02-28T13:14:14;6.37;96.26
64198;SHT31;50512;53.666;9.700;2024-02-28T13:16:44;6.30;95.92
64198;SHT31;50512;53.666;9.700;2024-02-28T13:19:10;6.29;96.33
64198;SHT31;50512;53.666;9.700;2024-02-28T13:21:38;6.44;96.27
64198;SHT31;50512;53.666;9.700;2024-02-28T13:24:05;6.50;96.15
64198;SHT31;50512;53.666;9.700;2024-02-28T13:26:32;6.51;95.67
64198;SHT31;50512;53.666;9.700;2024-02-28T13:28:58;6.54;96.28
64198;SHT31;50512;53.666;9.700;2024-02-28T13:31:24;6.57;95.59
64198;SHT31;50512;53.666;9.700;2024-02-28T13:33:52;6.48;95.66
64198;SHT31;50512;53.666;9.700;2024-02-28T13:36:19;6.56;96.30
64198;SHT31;50512;53.666;9.700;2024-02-28T13:38:45;6.48;96.13
64198;SHT31;50512;53.666;9.700;2024-02-28T13:41:11;6.61;96.66
64198;SHT31;50512;53.666;9.700;2024-02-28T13:43:38;6.68;95.46
64198;SHT31;50512;53.666;9.700;2024-02-28T13:46:04;6.74;95.17
64198;SHT31;50512;53.666;9.700;2024-02-28T13:48:31;6.71;95.15
64198;SHT31;50512;53.666;9.700;2024-02-28T13:50:59;6.46;95.80
64198;SHT31;50512;53.666;9.700;2024-02-28T13:53:27;6.36;96.45
64198;SHT31;50512;53.666;9.700;2024-02-28T13:55:53;6.54;95.94
64198;SHT31;50512;53.666;9.700;2024-02-28T13:58:20;6.58;95.61
64198;SHT31;50512;53.666;9.700;2024-02-28T14:00:47;6.56;95.73
64198;SHT31;50512;53.666;9.700;2024-02-28T14:03:14;6.33;96.01
64198;SHT31;50512;53.666;9.700;2024-02-28T14:05:40;6.32;96.38
64198;SHT31;50512;53.666;9.700;2024-02-28T14:08:08;6.25;96.18
64198;SHT31;50512;53.666;9.700;2024-02-28T14:10:37;6.20;96.60
64198;SHT31;50512;53.666;9.700;2024-02-28T14:13:05;6.26;97.09
64198;SHT31;50512;53.666;9.700;2024-02-28T14:15:31;6.34;96.63
64198;SHT31;50512;53.666;9.700;2024-02-28T14:17:57;6.34;96.35
64198;SHT31;50512;53.666;9.700;2024-02-28T14:20:24;6.33;96.67
64198;SHT31;50512;53.666;9.700;2024-02-28T14:22:51;6.30;96.76
64198;SHT31;50512;53.666;9.700;2024-02-28T14:25:19;6.28;96.95
64198;SHT31;50512;53.666;9.700;2024-02-28T14:27:47;6.28;97.42
64198;SHT31;50512;53.666;9.700;2024-02-28T14:30:14;6.29;97.28
64198;SHT31;50512;53.666;9.700;2024-02-28T14:32:42;6.28;96.72
64198;SHT31;50512;53.666;9.700;2024-02-28T14:35:09;6.40;96.96
64198;SHT31;50512;53.666;9.700;2024-02-28T14:37:37;6.47;96.25
64198;SHT31;50512;53.666;9.700;2024-02-28T14:40:06;6.54;96.44
64198;SHT31;50512;53.666;9.700;2024-02-28T14:42:37;6.47;96.40
64198;SHT31;50512;53.666;9.700;2024-02-28T14:45:05;6.41;96.56
64198;SHT31;50512;53.666;9.700;2024-02-28T14:47:32;6.41;96.67
64198;SHT31;50512;53.666;9.700;2024-02-28T14:49:59;6.44;96.39
64198;SHT31;50512;53.666;9.700;2024-02-28T14:52:25;6.44;96.25
64198;SHT31;50512;53.666;9.700;2024-02-28T14:54:52;6.56;96.44
64198;SHT31;50512;53.666;9.700;2024-02-28T14:57:19;6.56;96.19
64198;SHT31;50512;53.666;9.700;2024-02-28T14:59:47;6.48;96.32
64198;SHT31;50512;53.666;9.700;2024-02-28T15:02:13;6.44;96.05
64198;SHT31;50512;53.666;9.700;2024-02-28T15:04:40;6.53;96.31
64198;SHT31;50512;53.666;9.700;2024-02-28T15:07:06;6.43;95.90
64198;SHT31;50512;53.666;9.700;2024-02-28T15:09:33;6.43;95.51
64198;SHT31;50512;53.666;9.700;2024-02-28T15:12:00;6.47;95.96
64198;SHT31;50512;53.666;9.700;2024-02-28T15:14:26;6.48;96.01
64198;SHT31;50512;53.666;9.700;2024-02-28T15:16:54;6.51;95.66
64198;SHT31;50512;53.666;9.700;2024-02-28T15:19:20;6.54;95.77
64198;SHT31;50512;53.666;9.700;2024-02-28T15:21:47;6.48;96.04
64198;SHT31;50512;53.666;9.700;2024-02-28T15:24:13;6.43;96.02
64198;SHT31;50512;53.666;9.700;2024-02-28T15:26:41;6.50;96.77
64198;SHT31;50512;53.666;9.700;2024-02-28T15:29:07;6.54;96.46
64198;SHT31;50512;53.666;9.700;2024-02-28T15:31:33;6.51;96.30
64198;SHT31;50512;53.666;9.700;2024-02-28T15:34:02;6.50;96.05
64198;SHT31;50512;53.666;9.700;2024-02-28T15:36:29;6.43;95.64
64198;SHT31;50512;53.666;9.700;2024-02-28T15:38:55;6.30;95.78
64198;SHT31;50512;53.666;9.700;2024-02-28T15:41:22;6.26;95.82
64198;SHT31;50512;53.666;9.700;2024-02-28T15:43:49;6.23;96.15